Time;durP1;ratioP1;P1;durP2;ratioP2;P2;SDS_P1;SDS_P2;PMS_P1;PMS_P2;Temp;Humidity;BMP_temperature;BMP_pressure;BME280_temperature;BME280_humidity;BME280_pressure;Samples;Min_cycle;Max_cycle;Signal;HPM_P1;HPM_P2
2023/06/11 00:00:19;;;;;;;21.38;14.25;;;14.80;99.90;;;;;;5147199;28;20525;-73
2023/06/11 00:02:56;;;;;;;19.55;13.88;;;14.80;99.90;;;;;;5147147;28;20030;-74
2023/06/11 00:05:28;;;;;;;16.65;14.10;;;14.80;99.90;;;;;;5147252;28;20015;-73
2023/06/11 00:08:02;;;;;;;17.75;13.10;;;14.90;99.90;;;;;;5145724;28;20035;-70
2023/06/11 00:10:32;;;;;;;20.15;13.48;;;14.70;99.90;;;;;;5147123;28;20031;-71
2023/06/11 00:13:03;;;;;;;15.48;13.18;;;14.80;99.90;;;;;;5146884;28;20038;-70
2023/06/11 00:15:34;;;;;;;18.40;13.07;;;14.60;99.90;;;;;;5146881;28;20379;-72
2023/06/11 00:18:05;;;;;;;17.35;13.02;;;14.80;99.90;;;;;;5146239;28;20027;-73
2023/06/11 00:20:40;;;;;;;18.25;13.45;;;14.80;99.90;;;;;;5138092;28;20036;-71
2023/06/11 00:23:11;;;;;;;17.58;12.90;;;14.50;99.90;;;;;;5146626;28;20027;-72
2023/06/11 00:25:42;;;;;;;18.35;13.32;;;14.60;99.90;;;;;;5145495;28;20042;-73
2023/06/11 00:28:13;;;;;;;15.25;13.40;;;14.50;99.90;;;;;;5146440;28;20383;-71
2023/06/11 00:30:44;;;;;;;18.60;13.75;;;14.60;99.90;;;;;;5146376;28;20471;-74
2023/06/11 00:33:15;;;;;;;16.90;13.30;;;14.50;99.90;;;;;;5146456;28;20023;-72
2023/06/11 00:35:49;;;;;;;16.58;12.32;;;14.50;99.90;;;;;;5146509;28;20052;-74
2023/06/11 00:38:41;;;;;;;18.02;12.98;;;14.70;99.90;;;;;;5146344;28;20544;-71
2023/06/11 00:41:14;;;;;;;20.73;14.02;;;14.60;99.90;;;;;;5146428;28;20491;-73
2023/06/11 00:43:44;;;;;;;17.10;12.93;;;14.50;99.90;;;;;;5146309;28;20070;-70
2023/06/11 00:46:16;;;;;;;18.63;13.07;;;14.60;99.90;;;;;;5145461;28;20062;-73
2023/06/11 00:48:47;;;;;;;16.63;13.48;;;14.40;99.90;;;;;;5145864;28;20570;-71
2023/06/11 00:51:24;;;;;;;16.15;12.98;;;14.10;99.90;;;;;;5146008;28;20025;-71
2023/06/11 00:53:55;;;;;;;19.85;14.13;;;14.10;99.90;;;;;;5146106;28;20114;-71
2023/06/11 00:56:26;;;;;;;18.65;12.70;;;14.40;99.90;;;;;;5145907;28;20109;-71
2023/06/11 00:59:00;;;;;;;16.63;13.93;;;14.40;99.90;;;;;;5145983;28;20034;-74
2023/06/11 01:01:35;;;;;;;17.02;13.85;;;14.20;99.90;;;;;;5145716;28;20035;-71
2023/06/11 01:04:07;;;;;;;16.63;13.25;;;14.40;99.90;;;;;;5145923;28;20066;-72
2023/06/11 01:06:38;;;;;;;19.02;13.40;;;14.40;99.90;;;;;;5146035;28;20018;-71
2023/06/11 01:09:09;;;;;;;19.77;14.05;;;14.40;99.90;;;;;;5145054;28;20053;-73
2023/06/11 01:11:41;;;;;;;21.55;15.32;;;14.40;99.90;;;;;;5145488;28;20155;-72
2023/06/11 01:14:13;;;;;;;22.35;14.85;;;14.40;99.90;;;;;;5145691;28;20046;-71
2023/06/11 01:16:46;;;;;;;22.30;15.25;;;14.10;99.90;;;;;;5131034;28;20027;-71
2023/06/11 01:19:40;;;;;;;20.35;14.60;;;14.20;99.90;;;;;;5129551;28;20031;-71
2023/06/11 01:22:29;;;;;;;21.23;15.82;;;14.30;99.90;;;;;;5145952;28;20061;-73
2023/06/11 01:25:20;;;;;;;19.67;14.98;;;14.20;99.90;;;;;;5145690;28;20080;-70
2023/06/11 01:28:12;;;;;;;17.92;14.07;;;14.20;99.90;;;;;;5115442;28;20035;-73
2023/06/11 01:30:49;;;;;;;18.38;15.30;;;14.20;99.90;;;;;;5145314;28;20038;-74
2023/06/11 01:33:20;;;;;;;18.77;15.18;;;14.10;99.90;;;;;;5145378;28;20030;-75
2023/06/11 01:35:52;;;;;;;16.38;14.68;;;14.10;99.90;;;;;;5145470;28;20050;-71
2023/06/11 01:38:23;;;;;;;18.30;14.68;;;14.00;99.90;;;;;;5145322;28;20370;-72
2023/06/11 01:40:57;;;;;;;17.35;13.82;;;14.30;99.90;;;;;;5145261;28;20029;-74
2023/06/11 01:43:30;;;;;;;17.35;14.52;;;13.90;99.90;;;;;;5145097;28;20057;-72
2023/06/11 01:46:05;;;;;;;18.15;13.90;;;14.10;99.90;;;;;;5129512;28;20038;-71
2023/06/11 01:48:36;;;;;;;17.27;14.00;;;13.90;99.90;;;;;;5144619;28;20097;-72
2023/06/11 01:51:08;;;;;;;17.30;13.65;;;13.60;99.90;;;;;;5145236;28;20030;-74
2023/06/11 01:53:39;;;;;;;19.63;13.82;;;13.80;99.90;;;;;;5145320;28;20027;-70
2023/06/11 01:56:10;;;;;;;15.98;14.25;;;14.00;99.90;;;;;;5145113;28;20023;-73
2023/06/11 01:58:45;;;;;;;17.67;14.43;;;13.90;99.90;;;;;;5145079;28;20050;-71
2023/06/11 02:01:16;;;;;;;16.45;13.60;;;13.90;99.90;;;;;;5145158;28;20105;-75
2023/06/11 02:03:46;;;;;;;18.02;14.40;;;14.00;99.90;;;;;;5145153;28;20054;-74
2023/06/11 02:06:18;;;;;;;16.20;12.93;;;13.90;99.90;;;;;;5144978;28;20475;-71
2023/06/11 02:08:48;;;;;;;15.38;13.75;;;14.10;99.90;;;;;;5144769;28;20463;-74
2023/06/11 02:11:20;;;;;;;16.98;13.02;;;14.00;99.90;;;;;;5143699;28;20037;-72
2023/06/11 02:13:51;;;;;;;17.60;13.43;;;13.80;99.90;;;;;;5137041;28;20472;-71
2023/06/11 02:16:22;;;;;;;17.67;13.50;;;14.00;99.90;;;;;;5139564;28;20034;-73
2023/06/11 02:18:53;;;;;;;17.10;13.68;;;14.10;99.90;;;;;;5129538;28;20387;-73
2023/06/11 02:21:24;;;;;;;17.52;12.70;;;13.40;99.90;;;;;;5146424;28;20023;-75
2023/06/11 02:23:54;;;;;;;15.93;12.20;;;13.50;99.90;;;;;;5149214;28;20503;-75
2023/06/11 02:26:26;;;;;;;18.70;14.18;;;13.60;99.90;;;;;;5148826;28;20026;-74
2023/06/11 02:28:56;;;;;;;17.33;12.85;;;13.70;99.90;;;;;;5148629;28;20169;-72
2023/06/11 02:31:27;;;;;;;19.60;12.52;;;13.80;99.90;;;;;;5148839;28;20550;-72
2023/06/11 02:33:58;;;;;;;20.65;13.75;;;13.80;99.90;;;;;;5148691;28;20046;-71
2023/06/11 02:36:29;;;;;;;18.02;14.38;;;13.60;99.90;;;;;;5148750;28;20375;-75
2023/06/11 02:39:00;;;;;;;17.65;13.35;;;13.50;99.90;;;;;;5148487;28;20035;-71
2023/06/11 02:41:31;;;;;;;16.38;12.18;;;13.60;99.90;;;;;;5148798;28;20097;-72
2023/06/11 02:44:02;;;;;;;17.50;13.52;;;13.70;99.90;;;;;;5142968;28;20387;-71
2023/06/11 02:46:33;;;;;;;15.93;12.60;;;13.70;99.90;;;;;;5132820;28;20507;-71
2023/06/11 02:49:03;;;;;;;16.80;13.45;;;13.90;99.90;;;;;;5148351;28;20063;-72
2023/06/11 02:51:34;;;;;;;17.48;13.25;;;13.80;99.90;;;;;;5148517;28;20027;-74
2023/06/11 02:54:05;;;;;;;21.00;13.80;;;13.80;99.90;;;;;;5148168;28;20026;-71
2023/06/11 02:56:37;;;;;;;21.15;13.50;;;13.70;99.90;;;;;;5148365;28;20077;-71
2023/06/11 02:59:07;;;;;;;17.27;12.70;;;13.60;99.90;;;;;;5148438;28;20031;-75
2023/06/11 03:01:39;;;;;;;18.55;12.43;;;13.60;99.90;;;;;;5148275;28;20094;-74
2023/06/11 03:04:10;;;;;;;17.40;12.93;;;13.60;99.90;;;;;;5147055;28;20031;-73
2023/06/11 03:06:40;;;;;;;17.63;14.68;;;13.70;99.90;;;;;;5148191;28;20089;-72
2023/06/11 03:09:11;;;;;;;16.80;12.90;;;13.90;99.90;;;;;;5146804;28;20047;-72
2023/06/11 03:11:42;;;;;;;18.38;16.42;;;14.00;99.90;;;;;;5147696;28;20034;-71
2023/06/11 03:14:13;;;;;;;19.48;14.95;;;14.10;99.90;;;;;;5138379;28;20029;-72
2023/06/11 03:16:44;;;;;;;14.68;12.77;;;14.10;99.90;;;;;;5127947;28;20030;-72
2023/06/11 03:19:15;;;;;;;17.55;12.93;;;13.80;99.90;;;;;;5130137;28;20027;-73
2023/06/11 03:21:46;;;;;;;16.55;12.95;;;13.60;99.90;;;;;;5147721;28;20037;-72
2023/06/11 03:24:16;;;;;;;15.32;13.00;;;13.60;99.90;;;;;;5147914;28;20439;-73
2023/06/11 03:26:47;;;;;;;15.20;12.25;;;13.90;99.90;;;;;;5147770;28;20037;-75
2023/06/11 03:29:18;;;;;;;15.20;11.93;;;14.20;99.90;;;;;;5147379;28;20031;-72
2023/06/11 03:31:49;;;;;;;18.00;13.52;;;14.30;99.90;;;;;;5147559;28;20485;-75
2023/06/11 03:34:20;;;;;;;15.45;11.68;;;14.30;99.90;;;;;;5146968;28;20086;-72
2023/06/11 03:36:51;;;;;;;15.75;11.65;;;14.40;99.90;;;;;;5147439;28;20038;-72
2023/06/11 03:39:22;;;;;;;14.25;11.45;;;14.30;99.90;;;;;;5147420;28;20014;-72
2023/06/11 03:41:52;;;;;;;13.40;12.05;;;14.30;99.90;;;;;;5147095;28;20152;-71
2023/06/11 03:44:23;;;;;;;16.70;12.40;;;14.60;99.90;;;;;;5147471;28;20379;-71
2023/06/11 03:46:54;;;;;;;14.45;11.43;;;14.40;99.90;;;;;;5146986;28;20030;-74
2023/06/11 03:49:25;;;;;;;15.30;11.68;;;14.70;99.90;;;;;;5147253;28;20038;-75
2023/06/11 03:51:56;;;;;;;16.75;12.43;;;14.70;99.90;;;;;;5147680;28;20019;-71
2023/06/11 03:54:27;;;;;;;19.90;12.40;;;14.80;99.90;;;;;;5147318;28;20379;-72
2023/06/11 03:56:58;;;;;;;15.88;12.27;;;14.50;99.90;;;;;;5147333;28;20031;-71
2023/06/11 03:59:29;;;;;;;16.55;12.57;;;14.50;99.90;;;;;;5147179;28;20012;-73
2023/06/11 04:02:03;;;;;;;17.08;13.38;;;14.80;99.90;;;;;;5146934;28;20027;-71
2023/06/11 04:04:34;;;;;;;18.25;11.95;;;14.80;99.90;;;;;;5145464;28;20093;-71
2023/06/11 04:07:05;;;;;;;14.93;11.60;;;15.00;99.90;;;;;;5146815;28;20039;-75
2023/06/11 04:09:36;;;;;;;14.07;11.27;;;15.20;99.90;;;;;;5142323;28;20046;-73
2023/06/11 04:12:07;;;;;;;14.15;11.38;;;14.90;99.90;;;;;;5126882;28;20036;-72
2023/06/11 04:14:38;;;;;;;14.27;11.77;;;15.10;99.90;;;;;;5127054;28;20483;-72
2023/06/11 04:17:10;;;;;;;13.57;11.82;;;15.40;99.90;;;;;;5637664;23;20050;-74
2023/06/11 04:19:40;;;;;;;13.73;11.82;;;15.20;99.90;;;;;;5166846;28;20030;-73
2023/06/11 04:22:11;;;;;;;13.10;11.55;;;15.30;99.90;;;;;;5166625;28;20085;-72
2023/06/11 04:24:42;;;;;;;13.32;11.93;;;15.70;99.90;;;;;;5166805;28;20537;-73
2023/06/11 04:27:13;;;;;;;16.85;12.50;;;15.80;99.90;;;;;;5165436;28;20151;-72
2023/06/11 04:29:44;;;;;;;14.38;12.55;;;15.30;99.90;;;;;;5166524;28;20030;-75
2023/06/11 04:32:16;;;;;;;16.08;13.20;;;15.80;99.90;;;;;;5166520;28;20034;-72
2023/06/11 04:34:48;;;;;;;13.98;12.52;;;15.80;99.90;;;;;;5166424;28;20022;-72
2023/06/11 04:37:19;;;;;;;18.55;13.10;;;16.20;99.90;;;;;;5166368;28;20027;-73
2023/06/11 04:39:50;;;;;;;15.90;12.70;;;16.30;99.90;;;;;;5166452;28;20037;-72
2023/06/11 04:42:24;;;;;;;15.63;11.40;;;16.60;99.90;;;;;;5165168;28;20133;-72
2023/06/11 04:44:56;;;;;;;13.55;10.77;;;16.70;99.90;;;;;;5154710;28;20026;-74
2023/06/11 04:47:28;;;;;;;12.43;10.98;;;16.60;99.90;;;;;;5088012;28;20055;-72
2023/06/11 04:50:04;;;;;;;12.23;10.57;;;17.00;99.90;;;;;;5125482;29;20466;-72
2023/06/11 04:52:37;;;;;;;14.07;11.48;;;17.00;99.90;;;;;;5125578;29;20028;-71
2023/06/11 04:55:12;;;;;;;13.55;10.23;;;17.00;99.90;;;;;;5125211;28;20082;-72
2023/06/11 04:57:42;;;;;;;13.80;9.77;;;17.10;99.90;;;;;;5124947;29;20027;-71
2023/06/11 05:00:14;;;;;;;15.23;10.50;;;17.50;99.90;;;;;;5126151;28;20023;-72
2023/06/11 05:02:45;;;;;;;14.15;10.93;;;17.60;99.90;;;;;;5126108;29;20482;-71
2023/06/11 05:05:16;;;;;;;16.30;11.05;;;17.70;99.90;;;;;;5126138;29;20023;-71
2023/06/11 05:07:47;;;;;;;18.45;11.90;;;17.80;99.90;;;;;;5124856;29;20074;-71
2023/06/11 05:10:18;;;;;;;16.27;12.00;;;18.10;99.90;;;;;;5125876;29;20042;-71
2023/06/11 05:12:48;;;;;;;16.05;11.50;;;18.10;99.90;;;;;;5113054;28;20107;-71
2023/06/11 05:15:19;;;;;;;14.85;13.35;;;18.30;99.90;;;;;;5104707;29;20083;-71
2023/06/11 05:17:50;;;;;;;13.30;11.50;;;18.40;99.90;;;;;;5104171;29;20452;-71
2023/06/11 05:20:23;;;;;;;18.05;13.07;;;18.60;99.90;;;;;;5105814;29;20028;-72
2023/06/11 05:22:58;;;;;;;14.93;13.32;;;18.90;99.90;;;;;;5105934;29;20034;-72
2023/06/11 05:25:29;;;;;;;13.02;11.30;;;19.20;99.90;;;;;;5105956;29;20083;-75
2023/06/11 05:28:01;;;;;;;14.23;11.80;;;19.30;99.90;;;;;;5105853;29;20036;-72
2023/06/11 05:30:36;;;;;;;12.25;10.98;;;19.60;99.90;;;;;;5105600;29;20046;-71
2023/06/11 05:33:07;;;;;;;12.80;9.80;;;19.90;99.90;;;;;;5105748;29;20362;-71
2023/06/11 05:35:38;;;;;;;17.05;9.95;;;20.10;99.90;;;;;;5105788;29;20522;-73
2023/06/11 05:38:10;;;;;;;11.77;9.90;;;20.40;99.90;;;;;;5115815;29;20086;-71
2023/06/11 05:40:41;;;;;;;12.40;9.52;;;20.60;99.90;;;;;;5124657;28;20028;-71
2023/06/11 05:43:12;;;;;;;16.75;9.05;;;20.80;99.90;;;;;;5125381;28;20038;-71
2023/06/11 05:45:49;;;;;;;12.13;9.95;;;20.80;99.90;;;;;;5123621;28;20039;-71
2023/06/11 05:48:20;;;;;;;12.45;8.82;;;21.00;99.90;;;;;;5124730;28;20168;-71
2023/06/11 05:50:51;;;;;;;12.63;8.38;;;21.20;99.90;;;;;;5124093;28;20459;-71
2023/06/11 05:53:22;;;;;;;11.50;8.45;;;21.40;99.90;;;;;;5125105;29;20031;-71
2023/06/11 05:55:53;;;;;;;12.38;7.15;;;21.50;99.90;;;;;;5123615;29;20027;-71
2023/06/11 05:58:24;;;;;;;10.68;6.80;;;21.70;99.90;;;;;;5125121;28;20030;-75
2023/06/11 06:00:56;;;;;;;10.02;6.60;;;21.80;99.90;;;;;;5122077;28;20094;-74
2023/06/11 06:03:27;;;;;;;9.88;7.20;;;21.90;99.90;;;;;;5105264;29;20565;-71
2023/06/11 06:06:01;;;;;;;8.73;6.70;;;22.00;99.90;;;;;;5123476;29;20028;-71
2023/06/11 06:08:32;;;;;;;10.98;7.28;;;22.10;99.90;;;;;;5113497;28;20036;-71
2023/06/11 06:11:02;;;;;;;14.13;6.80;;;22.10;99.90;;;;;;5105474;29;20429;-75
2023/06/11 06:13:33;;;;;;;8.60;7.47;;;22.30;99.90;;;;;;5103954;29;20020;-72
2023/06/11 06:16:05;;;;;;;13.38;7.30;;;22.30;99.90;;;;;;5105370;29;20035;-71
2023/06/11 06:18:37;;;;;;;8.18;7.43;;;22.60;99.90;;;;;;5105008;29;20075;-71
2023/06/11 06:21:08;;;;;;;11.23;7.35;;;22.60;99.90;;;;;;5121855;29;20038;-72
2023/06/11 06:23:39;;;;;;;14.15;8.32;;;22.70;99.90;;;;;;5124954;28;20035;-75
2023/06/11 06:26:12;;;;;;;13.75;6.85;;;22.70;99.90;;;;;;5124913;28;20062;-72
2023/06/11 06:28:43;;;;;;;10.43;7.18;;;22.70;99.90;;;;;;5119039;28;20095;-73
2023/06/11 06:31:14;;;;;;;11.32;7.97;;;22.80;99.90;;;;;;5118407;29;20032;-74
2023/06/11 06:33:45;;;;;;;9.07;8.20;;;22.90;99.90;;;;;;5104771;29;20107;-71
2023/06/11 06:36:16;;;;;;;14.65;7.85;;;22.90;99.90;;;;;;5105177;29;20102;-71
2023/06/11 06:38:47;;;;;;;10.00;8.55;;;22.90;99.90;;;;;;5103687;29;20055;-71
2023/06/11 06:41:18;;;;;;;11.35;8.02;;;22.70;99.90;;;;;;5104852;29;20082;-71
2023/06/11 06:43:49;;;;;;;11.52;8.02;;;22.70;99.90;;;;;;5104954;29;20028;-72
2023/06/11 06:46:20;;;;;;;18.73;7.05;;;23.00;99.90;;;;;;5104944;29;20500;-72
2023/06/11 06:48:51;;;;;;;9.95;6.55;;;23.20;99.90;;;;;;5104693;29;20571;-72
2023/06/11 06:51:22;;;;;;;11.80;7.15;;;23.30;99.90;;;;;;5104834;29;20023;-72
2023/06/11 06:53:53;;;;;;;12.35;7.07;;;23.30;99.90;;;;;;5104779;29;20024;-71
2023/06/11 06:56:24;;;;;;;10.52;7.18;;;23.30;99.90;;;;;;5104862;29;20024;-72
2023/06/11 06:58:54;;;;;;;8.25;7.43;;;23.20;99.90;;;;;;5104907;29;20484;-72
2023/06/11 07:01:25;;;;;;;9.38;7.10;;;23.30;99.90;;;;;;5104800;29;20428;-75
2023/06/11 07:03:56;;;;;;;12.90;7.07;;;23.30;99.90;;;;;;5116681;29;20090;-73
2023/06/11 07:06:27;;;;;;;20.08;8.18;;;23.40;99.90;;;;;;5122895;28;20027;-75
2023/06/11 07:08:58;;;;;;;8.63;7.45;;;23.60;99.90;;;;;;5126615;28;20109;-72
2023/06/11 07:11:29;;;;;;;12.25;7.25;;;23.70;99.90;;;;;;5127947;28;20031;-76
2023/06/11 07:14:00;;;;;;;10.23;6.85;;;23.50;99.90;;;;;;5127835;28;20023;-73
2023/06/11 07:16:31;;;;;;;11.52;6.68;;;23.70;99.90;;;;;;5127645;28;20421;-72
2023/06/11 07:19:02;;;;;;;13.43;7.82;;;23.70;99.90;;;;;;5127665;28;20053;-74
2023/06/11 07:21:35;;;;;;;10.38;7.10;;;23.80;99.90;;;;;;5127797;28;20074;-72
2023/06/11 07:24:07;;;;;;;12.63;8.10;;;23.80;99.90;;;;;;5127969;28;20030;-75
2023/06/11 07:26:38;;;;;;;10.88;8.43;;;24.00;99.90;;;;;;5128060;28;20034;-74
2023/06/11 07:29:08;;;;;;;12.60;9.00;;;24.10;99.90;;;;;;5126653;28;20387;-71
2023/06/11 07:31:39;;;;;;;12.43;9.60;;;23.90;99.90;;;;;;5127970;28;20098;-72
2023/06/11 07:34:10;;;;;;;12.80;9.80;;;24.10;99.90;;;;;;5121397;28;20055;-73
2023/06/11 07:36:41;;;;;;;13.48;9.20;;;24.10;99.90;;;;;;5108054;29;20032;-73
2023/06/11 07:39:12;;;;;;;13.10;9.15;;;24.10;99.90;;;;;;5111234;29;20102;-72
2023/06/11 07:41:43;;;;;;;13.18;8.60;;;24.10;99.90;;;;;;5122816;29;20440;-75
2023/06/11 07:44:14;;;;;;;10.68;8.50;;;24.30;99.90;;;;;;5127439;28;20468;-72
2023/06/11 07:46:45;;;;;;;8.30;7.45;;;24.30;99.90;;;;;;5127334;28;20496;-75
2023/06/11 07:49:16;;;;;;;9.93;7.30;;;24.20;99.90;;;;;;5127233;28;20125;-72
2023/06/11 07:51:46;;;;;;;8.63;7.38;;;24.30;99.90;;;;;;5127449;28;20027;-72
2023/06/11 07:54:17;;;;;;;9.10;7.28;;;24.40;99.90;;;;;;5127356;28;20042;-72
2023/06/11 07:56:48;;;;;;;9.10;7.53;;;24.30;99.90;;;;;;5127340;28;20424;-72
2023/06/11 07:59:19;;;;;;;8.75;6.95;;;24.40;99.90;;;;;;5127349;28;20019;-72
2023/06/11 08:01:50;;;;;;;8.82;6.13;;;24.40;99.90;;;;;;5127357;28;20035;-73
2023/06/11 08:04:21;;;;;;;8.23;6.38;;;24.80;99.90;;;;;;5125000;28;20046;-72
2023/06/11 08:06:53;;;;;;;24.02;6.80;;;24.40;99.90;;;;;;5127154;28;20027;-76
2023/06/11 08:09:23;;;;;;;9.18;6.20;;;24.70;99.90;;;;;;5126894;28;20047;-73
2023/06/11 08:11:54;;;;;;;9.07;5.95;;;24.70;99.90;;;;;;5126884;28;20031;-73
2023/06/11 08:14:25;;;;;;;9.32;5.75;;;24.80;99.90;;;;;;5067123;28;20139;-72
2023/06/11 08:16:56;;;;;;;9.48;5.68;;;24.60;99.90;;;;;;5089944;29;20122;-72
2023/06/11 08:19:27;;;;;;;8.02;6.00;;;24.50;99.90;;;;;;5086540;29;20101;-72
2023/06/11 08:22:01;;;;;;;8.68;4.88;;;24.60;99.90;;;;;;5086839;29;20515;-75
2023/06/11 08:24:32;;;;;;;8.60;5.18;;;24.80;99.90;;;;;;5086682;29;20032;-72
2023/06/11 08:27:03;;;;;;;8.93;5.50;;;24.80;99.90;;;;;;5084204;29;20024;-72
2023/06/11 08:29:34;;;;;;;7.60;5.35;;;24.60;99.90;;;;;;5102346;29;20126;-75
2023/06/11 08:32:05;;;;;;;8.70;5.18;;;24.70;99.90;;;;;;5088828;29;20038;-73
2023/06/11 08:34:36;;;;;;;5.00;4.47;;;25.00;99.90;;;;;;5087027;29;20111;-73
2023/06/11 08:37:07;;;;;;;9.73;5.20;;;25.00;99.90;;;;;;5086984;29;20017;-72
2023/06/11 08:39:38;;;;;;;7.10;5.18;;;25.00;99.90;;;;;;5086871;29;20036;-72
2023/06/11 08:42:08;;;;;;;5.80;4.75;;;24.80;99.90;;;;;;5086924;29;20495;-72
2023/06/11 08:44:39;;;;;;;10.85;6.18;;;24.50;99.90;;;;;;5086847;29;20032;-73
2023/06/11 08:47:12;;;;;;;4.95;4.55;;;24.60;99.90;;;;;;5086563;29;20020;-72
2023/06/11 08:49:45;;;;;;;12.02;6.63;;;24.70;99.90;;;;;;5085502;29;20381;-72
2023/06/11 08:52:17;;;;;;;10.10;5.63;;;24.30;99.90;;;;;;5099808;29;20036;-72
2023/06/11 08:54:48;;;;;;;7.53;5.60;;;24.60;99.90;;;;;;5086892;29;20028;-72
2023/06/11 08:57:19;;;;;;;8.60;5.38;;;24.60;99.90;;;;;;5086935;29;20035;-72
2023/06/11 08:59:50;;;;;;;10.60;7.78;;;24.50;99.90;;;;;;5086582;29;20039;-73
2023/06/11 09:02:21;;;;;;;14.00;9.10;;;24.60;99.90;;;;;;5082152;29;20024;-72
2023/06/11 09:04:54;;;;;;;17.85;9.30;;;25.20;99.90;;;;;;5086118;29;20043;-76
2023/06/11 09:07:30;;;;;;;8.48;6.05;;;25.20;99.90;;;;;;5086101;29;20425;-75
2023/06/11 09:10:08;;;;;;;13.13;8.38;;;25.30;99.90;;;;;;5092784;29;20079;-72
2023/06/11 09:12:39;;;;;;;7.10;4.90;;;25.40;99.90;;;;;;5106154;29;20020;-72
2023/06/11 09:15:12;;;;;;;11.23;6.55;;;25.00;99.90;;;;;;5105960;29;20038;-73
2023/06/11 09:17:46;;;;;;;6.47;5.82;;;25.30;99.90;;;;;;5098690;29;20130;-72
2023/06/11 09:20:18;;;;;;;12.05;8.20;;;25.50;99.90;;;;;;5105875;29;20024;-73
2023/06/11 09:22:51;;;;;;;11.10;6.30;;;25.70;99.90;;;;;;5105973;29;20157;-73
2023/06/11 09:25:21;;;;;;;9.38;5.68;;;26.10;99.90;;;;;;5105980;29;20044;-73
2023/06/11 09:27:53;;;;;;;14.32;4.93;;;26.40;99.90;;;;;;5091570;29;20032;-76
2023/06/11 09:30:24;;;;;;;5.82;5.25;;;26.20;99.90;;;;;;5084982;29;20036;-76
2023/06/11 09:32:57;;;;;;;7.00;4.85;;;26.00;99.90;;;;;;5085635;29;20024;-72
2023/06/11 09:35:29;;;;;;;7.15;5.03;;;25.40;99.90;;;;;;5085525;29;20024;-75
2023/06/11 09:38:00;;;;;;;4.55;4.15;;;25.10;99.90;;;;;;5085937;29;20115;-73
2023/06/11 09:40:34;;;;;;;4.70;4.30;;;25.40;99.90;;;;;;5085917;29;20032;-74
2023/06/11 09:43:06;;;;;;;13.63;3.97;;;25.90;99.90;;;;;;5086307;29;20483;-74
2023/06/11 09:45:37;;;;;;;5.43;4.63;;;26.20;99.90;;;;;;5105553;29;20094;-72
2023/06/11 09:48:11;;;;;;;8.95;5.05;;;26.10;99.90;;;;;;5105325;29;20086;-74
2023/06/11 09:50:43;;;;;;;8.32;4.70;;;26.00;99.90;;;;;;5096954;29;20040;-75
2023/06/11 09:53:15;;;;;;;5.50;5.00;;;26.20;99.90;;;;;;5103245;29;20091;-72
2023/06/11 09:55:50;;;;;;;8.38;4.82;;;26.50;99.90;;;;;;5104366;29;20899;-74
2023/06/11 09:58:24;;;;;;;12.40;5.88;;;26.60;99.90;;;;;;5105690;29;20039;-73
2023/06/11 10:01:00;;;;;;;9.73;4.68;;;26.40;99.90;;;;;;5105291;29;20449;-74
2023/06/11 10:03:33;;;;;;;12.85;5.05;;;26.40;99.90;;;;;;5105364;29;20048;-74
2023/06/11 10:06:13;;;;;;;8.63;5.05;;;26.10;99.90;;;;;;5105335;29;20028;-72
2023/06/11 10:08:48;;;;;;;13.93;5.72;;;25.90;99.90;;;;;;5105545;29;20057;-72
2023/06/11 10:11:23;;;;;;;12.15;5.10;;;25.70;99.90;;;;;;5096709;29;20539;-74
2023/06/11 10:13:59;;;;;;;10.85;5.60;;;26.10;99.90;;;;;;5105266;29;20023;-74
2023/06/11 10:16:31;;;;;;;12.32;5.97;;;26.10;99.90;;;;;;5105007;29;20024;-73
2023/06/11 10:19:10;;;;;;;11.20;6.40;;;25.70;99.90;;;;;;5105010;29;20098;-73
2023/06/11 10:21:44;;;;;;;23.13;19.67;;;25.40;99.90;;;;;;5105374;29;20349;-74
2023/06/11 10:24:28;;;;;;;29.95;22.05;;;25.30;99.90;;;;;;5105220;29;20039;-74
2023/06/11 10:27:13;;;;;;;13.50;7.72;;;25.20;99.90;;;;;;5104360;29;20043;-74
2023/06/11 10:29:48;;;;;;;14.02;9.90;;;25.10;99.90;;;;;;5098588;29;20044;-72
2023/06/11 10:32:21;;;;;;;15.85;8.05;;;25.10;99.90;;;;;;5105161;29;20039;-72
2023/06/11 10:34:57;;;;;;;17.17;8.07;;;24.90;99.90;;;;;;5105080;29;20119;-73
2023/06/11 10:37:37;;;;;;;9.48;8.35;;;24.80;99.90;;;;;;5105082;29;20465;-73
2023/06/11 10:40:09;;;;;;;14.52;7.93;;;25.00;99.90;;;;;;5105106;29;20506;-72
2023/06/11 10:42:41;;;;;;;11.00;7.25;;;25.20;99.90;;;;;;5107131;29;20078;-75
2023/06/11 10:45:15;;;;;;;12.05;7.63;;;25.40;99.90;;;;;;5099405;29;20099;-72
2023/06/11 10:47:50;;;;;;;11.80;7.88;;;25.30;99.90;;;;;;5088854;29;20047;-72
2023/06/11 10:50:30;;;;;;;15.15;8.35;;;25.20;99.90;;;;;;5089012;29;20059;-72
2023/06/11 10:53:07;;;;;;;10.63;8.20;;;25.00;99.90;;;;;;5087199;29;20036;-75
2023/06/11 10:55:42;;;;;;;13.40;7.60;;;25.00;99.90;;;;;;5087126;29;20066;-73
2023/06/11 10:58:23;;;;;;;10.00;7.63;;;24.70;99.90;;;;;;5085421;29;20031;-72
2023/06/11 11:00:54;;;;;;;16.77;8.52;;;25.00;99.90;;;;;;5085646;29;20067;-73
2023/06/11 11:03:30;;;;;;;13.55;8.25;;;25.00;99.90;;;;;;5088723;29;20110;-73
2023/06/11 11:06:01;;;;;;;11.38;8.75;;;25.00;99.90;;;;;;5088720;29;20123;-73
2023/06/11 11:08:31;;;;;;;16.38;7.85;;;24.80;99.90;;;;;;5088711;29;20107;-72
2023/06/11 11:11:04;;;;;;;13.60;7.88;;;24.70;99.90;;;;;;5088684;29;20036;-72
2023/06/11 11:13:36;;;;;;;10.57;8.43;;;24.90;99.90;;;;;;5088674;29;20051;-73
2023/06/11 11:16:08;;;;;;;17.15;10.50;;;25.70;99.90;;;;;;5088676;29;20056;-75
2023/06/11 11:18:39;;;;;;;10.10;8.68;;;26.00;99.90;;;;;;5088300;29;20084;-72
2023/06/11 11:21:10;;;;;;;16.23;8.98;;;25.80;99.90;;;;;;5088341;29;20036;-72
2023/06/11 11:23:42;;;;;;;17.58;11.38;;;25.70;99.90;;;;;;5088360;29;20032;-73
2023/06/11 11:26:13;;;;;;;25.13;16.75;;;25.70;99.90;;;;;;5088695;29;20032;-72
2023/06/11 11:28:45;;;;;;;33.72;22.17;;;25.90;99.90;;;;;;5088432;29;20513;-74
2023/06/11 11:31:20;;;;;;;79.78;53.30;;;25.80;99.90;;;;;;5102442;29;20800;-72
2023/06/11 11:33:51;;;;;;;25.73;16.15;;;25.90;99.90;;;;;;5092433;29;20031;-72
2023/06/11 11:36:22;;;;;;;21.48;14.55;;;25.50;99.90;;;;;;5107727;29;20030;-72
2023/06/11 11:38:53;;;;;;;32.22;18.30;;;25.40;99.90;;;;;;5107841;29;20031;-72
2023/06/11 11:41:24;;;;;;;20.75;12.15;;;25.30;99.90;;;;;;5107783;29;20050;-75
2023/06/11 11:43:55;;;;;;;21.45;14.30;;;24.80;99.90;;;;;;5107788;29;20043;-72
2023/06/11 11:46:26;;;;;;;16.80;11.50;;;24.90;99.90;;;;;;5106295;29;20039;-74
2023/06/11 11:48:57;;;;;;;19.48;11.63;;;24.70;99.90;;;;;;5107488;29;20078;-73
2023/06/11 11:51:29;;;;;;;22.95;16.55;;;24.90;99.90;;;;;;5107643;29;20035;-74
2023/06/11 11:54:00;;;;;;;15.27;10.30;;;24.60;99.90;;;;;;5106791;28;20035;-72
2023/06/11 11:56:36;;;;;;;18.88;11.23;;;24.60;99.90;;;;;;5107312;29;20476;-72
2023/06/11 11:59:17;;;;;;;18.17;10.05;;;25.10;99.90;;;;;;5107406;29;20123;-72
2023/06/11 12:01:59;;;;;;;15.27;9.63;;;25.30;99.90;;;;;;5107373;29;20127;-73
2023/06/11 12:04:47;;;;;;;11.75;9.18;;;25.10;99.90;;;;;;5101467;29;20112;-73
2023/06/11 12:07:18;;;;;;;14.30;9.43;;;25.00;99.90;;;;;;5107250;29;20067;-76
2023/06/11 12:09:49;;;;;;;13.93;9.20;;;24.70;99.90;;;;;;5107132;29;20043;-75
2023/06/11 12:12:20;;;;;;;16.08;9.05;;;24.60;99.90;;;;;;5107008;29;20028;-74
2023/06/11 12:14:51;;;;;;;11.25;8.45;;;24.60;99.90;;;;;;5107065;29;20063;-74
2023/06/11 12:17:22;;;;;;;14.23;8.52;;;24.70;99.90;;;;;;5106624;29;20040;-76
2023/06/11 12:19:52;;;;;;;11.85;9.35;;;24.60;99.90;;;;;;5106762;29;20384;-75
2023/06/11 12:22:24;;;;;;;17.38;9.77;;;24.70;99.90;;;;;;5106936;29;20023;-75
2023/06/11 12:24:55;;;;;;;38.10;10.95;;;24.40;99.90;;;;;;5105425;29;20066;-74
2023/06/11 12:27:26;;;;;;;14.45;9.90;;;24.50;99.90;;;;;;5106741;29;20047;-73
2023/06/11 12:29:57;;;;;;;14.75;9.57;;;24.50;99.90;;;;;;5105167;29;20043;-74
2023/06/11 12:32:30;;;;;;;17.13;11.40;;;24.60;99.90;;;;;;5106727;29;20012;-75
2023/06/11 12:35:01;;;;;;;17.83;10.10;;;24.50;99.90;;;;;;5106799;29;20032;-74
2023/06/11 12:37:32;;;;;;;14.60;9.02;;;24.50;99.90;;;;;;5106669;29;20028;-75
2023/06/11 12:40:05;;;;;;;11.40;9.30;;;24.20;99.90;;;;;;5105256;29;20028;-75
2023/06/11 12:42:37;;;;;;;14.98;11.68;;;24.30;99.90;;;;;;5106511;29;20027;-75
2023/06/11 12:45:08;;;;;;;12.10;9.18;;;24.50;99.90;;;;;;5106430;29;20382;-75
2023/06/11 12:47:39;;;;;;;12.82;8.70;;;24.60;99.90;;;;;;5106354;29;20031;-73
2023/06/11 12:50:10;;;;;;;10.98;8.43;;;24.90;99.90;;;;;;5105031;29;20046;-75
2023/06/11 12:52:42;;;;;;;12.32;8.57;;;25.40;99.90;;;;;;5105195;29;20055;-75
2023/06/11 12:55:13;;;;;;;14.90;8.07;;;25.80;99.90;;;;;;5105088;29;20024;-74
2023/06/11 12:57:44;;;;;;;12.40;9.07;;;25.70;99.90;;;;;;5106244;29;20417;-72